Ride Results

Eidsvold (13-05-2007)
Ride distance: 81.0 km

Outcomes - Eidsvold (13-05-2007)
Division No. of Entries Retired / DNE Completed Withdrawn Ineligible V/O Percentage Completed
HW 17 - 11 1 - 5 64.71%
MW 21 - 19 1 - 1 90.48%
LW 12 - 9 - - 3 75.00%
JN 4 - 4 - - - 100.00%
Totals 54 - 43 2 - 9 79.63%
Results - Eidsvold (13-05-2007)
No. Rider Horse Place Time Leg Speeds Total
Km/Hr
H/R bpm
Heavyweight
30 Jonnie White Die Kinder Spyder 1 4:20:00 18.9, 18.4 18.69 32, 32, 41 (Avg:36)
1 Malcolm Caldwell Celandra Ramazar 2 4:31:00 18.3, 17.5 17.93 44, 43, 49 (Avg:46)
31 John Dugan Allira Park Quick & Easy 3 4:42:00 17.6, 16.7 17.23 34, 45, 53 (Avg:49)
51 Paul Fitzgerald Merton Amadeus 4 5:32:00 15.6, 13.7 14.64 43, 42, 56 (Avg:49)
41 Gerard Bou Keisha 5 6:07:00 13.2, 13.1 13.24 32, 37, 43 (Avg:40)
22 Olaf Lochtenberg Matta Mia Ademi 6 6:09:00 13.5, 12.7 13.17 51, 45, 47 (Avg:46)
21 Elizabeth Paton Leonora Princess 6 6:09:00 13.5, 12.8 13.17 35, 41, 48 (Avg:44)
9 Neil Boardman Botusa Park Boshai 8 6:12:00 13.4, 12.6 13.06 32, 38, 39 (Avg:38)
13 Maree Pearce Sativa Billy The Kid 9 7:07:00 12.2, 10.6 11.38 43, 40, 53 (Avg:46)
11 Stephen Harris Kasban Pierre 10 7:31:00 13.4, 8.9 10.78 48, 42, 50 (Avg:46)
39 Edward (ted) Fitzgerald Lilonda Count Richael 11 7:36:00 13.2, 8.8 10.66 36, 41, 43 (Avg:42)
40 Bruce Moore Summer Park Douglas Explorer Lame L2 0:00:00 13.5, 12.7 - 39, 40, 50 (Avg:45)
18 Alwyn Torenbeek Coal Dust Lame L2 0:00:00 14.6, 14.2 - 28, 44, 44 (Avg:44)
36 Lisa Ash Shardell Patrice Widthdrawn L1 0:00:00 - - 46, 0 (Avg:0)
53 Paul Lanham Sylvia Vale Barrister Lame L1 0:00:00 17.6 - 33, 47 (Avg:47)
26 Sabrina Legros D'Amors Thunder Down Under Lame L1 0:00:00 13.2 - 40, 43 (Avg:43)
14 Louise Mackey Dmar Raining Gold Heart Rate L1 0:00:00 12.2 - 30, 60 (Avg:60)
Middleweight
47 Raewyn Carter Mt Eerwah Siridion 1 4:18:00 18.0, 19.6 18.84 38, 45, 51 (Avg:48)
42 Michelle Morrison Summit Park Raz 2 4:28:00 17.4, 18.8 18.13 31, 39, 49 (Avg:44)
32 Heather Parry Agape Genesis 2 4:28:00 17.4, 18.8 18.13 34, 40, 40 (Avg:40)
52 Julie Kemp Al Baraq 4 4:30:00 17.2, 18.8 18.00 39, 47, 50 (Avg:48)
56 Lesley Nancarrow Zenith Park Quill 4 4:30:00 17.9, 18.0 18.00 34, 41, 43 (Avg:42)
4 Christopher Fulwood Russian 6 4:44:00 17.4, 16.7 17.11 31, 38, 50 (Avg:44)
43 Emma Holland Shardell Azrark 7 5:13:00 17.5, 13.8 15.53 30, 41, 44 (Avg:42)
44 Billie Barron Shardell Sharana Golden 8 5:14:00 17.5, 13.7 15.48 33, 42, 44 (Avg:43)
16 Trevor Copland Dalgangle 9 5:37:00 14.6, 14.2 14.42 31, 42, 45 (Avg:43)
3 Adrienne Faggotter Roxborough Esperanto 9 5:37:00 14.6, 14.2 14.42 42, 44, 56 (Avg:50)
24 Jackie Swan Longrun Domino 11 5:47:00 16.1, 12.3 14.01 30, 36, 47 (Avg:41)
49 Peter Birch Hillbrae May 12 5:50:00 15.7, 12.3 13.89 34, 46, 50 (Avg:48)
48 Sandra Birch Hillbrae Riley 12 5:50:00 15.7, 12.3 13.89 40, 40, 45 (Avg:42)
35 Simone Krahnen Kalkadoon Zorro 14 6:01:00 13.6, 13.2 13.46 38, 38, 45 (Avg:41)
8 Gayle Holmes Aloha Spartacus 15 6:05:00 13.5, 13.1 13.32 44, 42, 46 (Avg:44)
7 Akhmed Pshunov Captain's Creek Rupert 15 6:05:00 13.5, 13.1 13.32 38, 43, 46 (Avg:44)
20 Kerrie McAuliffe Rosie O'Day 17 6:09:00 13.5, 12.8 13.17 31, 42, 43 (Avg:42)
38 Sandra Walters Brecon Captain Starlight 17 6:09:00 13.5, 12.8 13.17 34, 36, 50 (Avg:43)
17 Brigitte Stamm Kooemba 19 6:12:00 13.5, 12.6 13.06 35, 45, 48 (Avg:46)
27 Rhonda Toon Roxborough Peekarra Heart Rate L2 0:00:00 13.2, 12.5 - 39, 43, 72 (Avg:57)
55 Len Law Lenannlaw Destiny Widthdrawn L1 0:00:00 - - 37, 47 (Avg:47)
Lightweight
33 Jeanna Maher Red Gum Trinket 1 4:19:00 18.9, 18.6 18.76 36, 39, 46 (Avg:42)
45 Tylana Woodward Tallow Wood Sa Hassan 1 4:19:00 18.9, 18.6 18.76 41, 49, 51 (Avg:50)
5 Raelene Berry Abbeywood Aladdin 3 4:44:00 17.4, 16.7 17.11 31, 42, 40 (Avg:41)
50 Sarrah Lee Fenech Monty 4 5:12:00 15.6, 15.4 15.58 35, 42, 44 (Avg:43)
15 Sue Sutcliffe Saayid's Simply Red 5 5:24:00 16.1, 13.9 15.00 28, 35, 40 (Avg:37)
57 Julianne Higgins Lenannlaw Vitality 6 6:05:00 13.5, 13.1 13.32 38, 45, 53 (Avg:49)
23 Terri Anderson Matta Mia Dayman 7 6:09:00 13.5, 12.8 13.17 38, 43, 46 (Avg:44)
46 Julie Fletcher Hillbrae Garnet 8 6:16:00 14.2, 11.8 12.93 31, 37, 48 (Avg:42)
19 Bobbi Lochtenberg Matta Mia Safir 9 6:43:00 13.5, 10.8 12.06 44, 41, 45 (Avg:43)
6 Ashley Ross Dardanga Harmony Lame L2 0:00:00 13.3, 10.8 - 36, 42, 48 (Avg:45)
2 Chez Wilkinson Kashon Lea Lame L2 0:00:00 13.3, 12.4 - 36, 33, 56 (Avg:44)
10 Karen Hill Dawson River Swanessa Lame L1 0:00:00 13.5 - 41, 41 (Avg:41)
Junior
12 Lisa Burgess Eljannah Wafa 1 4:28:00 17.2, 19.1 18.13 36, 38, 45 (Avg:41)
25 Timothy Sutcliffe Talbarear Rapier 2 5:24:00 16.1, 13.9 15.00 35, 43, 46 (Avg:44)
34 Erin Krahnen Kyuna Cherakee 3 6:01:00 13.6, 13.2 13.46 36, 39, 45 (Avg:42)
37 Tarnia Kittel Splendacrest Dryad 4 6:06:00 13.2, 13.2 13.28 37, 43, 48 (Avg:45)